Time;durP1;ratioP1;P1;durP2;ratioP2;P2;SDS_P1;SDS_P2;PMS_P1;PMS_P2;Temp;Humidity;BMP_temperature;BMP_pressure;BME280_temperature;BME280_humidity;BME280_pressure;Samples;Min_cycle;Max_cycle;Signal;HPM_P1;HPM_P2
2022/04/03 00:01:30;;;;;;;1.02;1.02;;;1.30;99.90;;;;;;5033399;28;20033;-73
2022/04/03 00:03:56;;;;;;;2.72;1.92;;;1.40;99.90;;;;;;5033696;28;20018;-73
2022/04/03 00:06:24;;;;;;;0.40;0.40;;;1.40;99.90;;;;;;5032259;28;20366;-72
2022/04/03 00:08:50;;;;;;;1.25;1.15;;;1.40;99.90;;;;;;5033613;28;20026;-73
2022/04/03 00:11:16;;;;;;;0.43;0.43;;;1.40;99.90;;;;;;5033654;28;20048;-73
2022/04/03 00:13:42;;;;;;;0.30;0.30;;;1.40;99.90;;;;;;5032297;28;20504;-73
2022/04/03 00:16:07;;;;;;;0.43;0.43;;;1.40;99.90;;;;;;5033298;28;20439;-73
2022/04/03 00:18:33;;;;;;;1.58;1.58;;;1.20;99.90;;;;;;5033574;28;20083;-73
2022/04/03 00:21:00;;;;;;;1.85;1.73;;;1.10;99.90;;;;;;5033386;28;20076;-73
2022/04/03 00:23:26;;;;;;;0.95;0.95;;;1.00;99.90;;;;;;5032255;28;20060;-73
2022/04/03 00:25:52;;;;;;;0.40;0.40;;;0.90;99.90;;;;;;5033118;28;20025;-73
2022/04/03 00:28:22;;;;;;;0.40;0.40;;;1.00;99.90;;;;;;5031736;28;20036;-72
2022/04/03 00:30:47;;;;;;;0.93;0.93;;;1.10;99.90;;;;;;5032140;28;20030;-73
2022/04/03 00:33:13;;;;;;;1.23;1.13;;;1.20;99.90;;;;;;5033131;28;20028;-73
2022/04/03 00:35:39;;;;;;;2.17;1.30;;;1.40;99.90;;;;;;5032808;28;20025;-73
2022/04/03 00:38:06;;;;;;;0.63;0.63;;;1.30;99.90;;;;;;5033204;28;20120;-73
2022/04/03 00:40:31;;;;;;;5.05;4.30;;;1.30;99.90;;;;;;5031648;28;20554;-73
2022/04/03 00:42:57;;;;;;;0.75;0.75;;;1.30;99.90;;;;;;5032016;28;20026;-73
2022/04/03 00:45:23;;;;;;;0.38;0.38;;;1.30;99.90;;;;;;5031646;28;20033;-73
2022/04/03 00:47:52;;;;;;;0.80;0.55;;;1.40;99.90;;;;;;5032859;28;20021;-73
2022/04/03 00:50:18;;;;;;;0.30;0.30;;;1.20;99.90;;;;;;5033068;28;20496;-73
2022/04/03 00:52:44;;;;;;;0.32;0.32;;;1.30;99.90;;;;;;5031665;28;20026;-73
2022/04/03 00:55:10;;;;;;;0.40;0.40;;;1.30;99.90;;;;;;5032822;28;20024;-73
2022/04/03 00:57:36;;;;;;;0.50;0.50;;;1.20;99.90;;;;;;5032610;28;20485;-73
2022/04/03 01:00:04;;;;;;;0.30;0.30;;;1.30;99.90;;;;;;5032409;28;20026;-73
2022/04/03 01:02:31;;;;;;;0.20;0.20;;;1.50;99.90;;;;;;5032297;28;20029;-73
2022/04/03 01:04:57;;;;;;;0.40;0.40;;;1.60;99.90;;;;;;5032606;28;20048;-73
2022/04/03 01:07:23;;;;;;;0.40;0.40;;;1.60;99.90;;;;;;5031177;28;20030;-73
2022/04/03 01:09:49;;;;;;;0.40;0.40;;;1.50;99.90;;;;;;5032567;28;20030;-73
2022/04/03 01:12:15;;;;;;;0.30;0.30;;;1.50;99.90;;;;;;5047787;28;20033;-74
2022/04/03 01:14:43;;;;;;;0.30;0.30;;;1.60;99.90;;;;;;5032466;28;20465;-73
2022/04/03 01:17:13;;;;;;;1.05;1.05;;;1.60;99.90;;;;;;5032190;28;20037;-73
2022/04/03 01:19:40;;;;;;;1.17;1.08;;;1.60;99.90;;;;;;5014550;28;20048;-73
2022/04/03 01:22:06;;;;;;;0.35;0.35;;;1.50;99.90;;;;;;5032427;28;20021;-73
2022/04/03 01:24:32;;;;;;;1.67;1.58;;;1.50;99.90;;;;;;5032549;28;20025;-73
2022/04/03 01:26:58;;;;;;;0.60;0.60;;;1.50;99.90;;;;;;5032349;28;20503;-73
2022/04/03 01:29:24;;;;;;;2.58;1.35;;;1.60;99.90;;;;;;5030989;28;20025;-73
2022/04/03 01:31:51;;;;;;;0.30;0.30;;;1.60;99.90;;;;;;5032190;28;20104;-73
2022/04/03 01:34:18;;;;;;;1.15;0.65;;;1.70;99.90;;;;;;5031054;28;20118;-73
2022/04/03 01:36:45;;;;;;;2.10;1.90;;;1.70;99.90;;;;;;5032052;28;20025;-73
2022/04/03 01:39:12;;;;;;;7.20;1.95;;;1.80;99.90;;;;;;5030160;28;20489;-73
2022/04/03 01:41:38;;;;;;;1.55;1.45;;;1.70;99.90;;;;;;5032104;28;20413;-73
2022/04/03 01:44:06;;;;;;;0.75;0.75;;;1.50;99.90;;;;;;5030850;28;20018;-73
2022/04/03 01:46:32;;;;;;;0.32;0.32;;;1.30;99.90;;;;;;5030751;28;20087;-73
2022/04/03 01:48:58;;;;;;;0.40;0.40;;;1.20;99.90;;;;;;5030864;28;20072;-73
2022/04/03 01:51:24;;;;;;;0.40;0.40;;;1.30;99.90;;;;;;5047422;28;20370;-73
2022/04/03 01:53:49;;;;;;;1.17;1.05;;;1.30;99.90;;;;;;5031978;28;20026;-73
2022/04/03 01:56:16;;;;;;;0.88;0.88;;;1.40;99.90;;;;;;5030598;28;20040;-73
2022/04/03 01:58:42;;;;;;;2.28;2.17;;;1.30;99.90;;;;;;5031997;28;20061;-73
2022/04/03 02:01:07;;;;;;;1.77;1.40;;;1.20;99.90;;;;;;5031294;28;20052;-73
2022/04/03 02:03:33;;;;;;;0.70;0.70;;;1.10;99.90;;;;;;5030616;28;20033;-73
2022/04/03 02:05:59;;;;;;;1.60;1.50;;;1.10;99.90;;;;;;5047043;28;20018;-73
2022/04/03 02:08:25;;;;;;;0.30;0.30;;;1.20;99.90;;;;;;5047440;28;20049;-73
2022/04/03 02:10:52;;;;;;;1.33;1.33;;;1.20;99.90;;;;;;5031932;28;20033;-73
2022/04/03 02:13:18;;;;;;;1.25;1.25;;;1.30;99.90;;;;;;5031815;28;20029;-73
2022/04/03 02:15:44;;;;;;;0.50;0.50;;;1.40;99.90;;;;;;5031615;28;20474;-73
2022/04/03 02:18:09;;;;;;;7.43;2.60;;;1.50;99.90;;;;;;5031774;28;20039;-73
2022/04/03 02:20:36;;;;;;;0.35;0.35;;;1.40;99.90;;;;;;5030458;28;20109;-72
2022/04/03 02:23:06;;;;;;;1.95;1.85;;;1.30;99.90;;;;;;5031819;28;20455;-73
2022/04/03 02:25:32;;;;;;;0.65;0.65;;;1.40;99.90;;;;;;5031604;28;20021;-72
2022/04/03 02:28:01;;;;;;;0.30;0.30;;;1.40;99.90;;;;;;5031765;28;20018;-73
2022/04/03 02:30:27;;;;;;;0.20;0.20;;;1.30;99.90;;;;;;5031637;28;20034;-73
2022/04/03 02:32:53;;;;;;;0.30;0.30;;;1.30;99.90;;;;;;5031719;28;20030;-73
2022/04/03 02:35:19;;;;;;;0.38;0.38;;;1.30;99.90;;;;;;5031592;28;20041;-73
2022/04/03 02:37:45;;;;;;;0.35;0.35;;;1.30;99.90;;;;;;5031671;28;20057;-73
2022/04/03 02:40:13;;;;;;;0.40;0.40;;;1.30;99.90;;;;;;5030353;28;20389;-73
2022/04/03 02:42:40;;;;;;;0.40;0.40;;;1.30;99.90;;;;;;5030394;28;20075;-73
2022/04/03 02:45:07;;;;;;;0.50;0.50;;;1.30;99.90;;;;;;5031442;28;20029;-73
2022/04/03 02:47:33;;;;;;;0.65;0.65;;;1.20;99.90;;;;;;5031512;28;20021;-73
2022/04/03 02:49:59;;;;;;;0.30;0.30;;;1.00;99.90;;;;;;5047054;28;20511;-73
2022/04/03 02:52:25;;;;;;;0.40;0.40;;;1.10;99.90;;;;;;5033779;28;20439;-73
2022/04/03 02:54:51;;;;;;;0.75;0.75;;;1.30;99.90;;;;;;5035041;28;20100;-73
2022/04/03 02:57:17;;;;;;;0.73;0.73;;;1.40;99.90;;;;;;5033599;28;20396;-73
2022/04/03 02:59:44;;;;;;;0.68;0.57;;;1.30;99.90;;;;;;5033361;28;20033;-71
2022/04/03 03:02:11;;;;;;;0.32;0.32;;;1.30;99.90;;;;;;5033130;28;20029;-73
2022/04/03 03:04:37;;;;;;;0.30;0.30;;;1.40;99.90;;;;;;5034746;28;20113;-72
2022/04/03 03:07:04;;;;;;;0.35;0.35;;;1.40;99.90;;;;;;5034908;28;20025;-73
2022/04/03 03:09:30;;;;;;;0.40;0.40;;;1.40;99.90;;;;;;5033719;28;20433;-73
2022/04/03 03:11:56;;;;;;;0.40;0.40;;;1.40;99.90;;;;;;5034649;28;20068;-73
2022/04/03 03:14:21;;;;;;;0.50;0.50;;;1.50;99.90;;;;;;5034648;28;20113;-73
2022/04/03 03:16:48;;;;;;;0.30;0.30;;;1.40;99.90;;;;;;5033142;28;20489;-73
2022/04/03 03:19:15;;;;;;;0.30;0.30;;;1.40;99.90;;;;;;5034491;28;20025;-73
2022/04/03 03:21:41;;;;;;;0.30;0.30;;;1.40;99.90;;;;;;5049931;28;20030;-73
2022/04/03 03:24:07;;;;;;;0.30;0.30;;;1.50;99.90;;;;;;5034576;28;20018;-72
2022/04/03 03:26:33;;;;;;;0.40;0.40;;;1.40;99.90;;;;;;5034294;28;20021;-73
2022/04/03 03:28:59;;;;;;;3.55;1.17;;;1.40;99.90;;;;;;5034429;28;20480;-73
2022/04/03 03:31:24;;;;;;;0.30;0.30;;;1.50;99.90;;;;;;5033201;28;20049;-74
2022/04/03 03:33:50;;;;;;;0.32;0.32;;;1.50;99.90;;;;;;5034319;28;20064;-73
2022/04/03 03:36:16;;;;;;;0.63;0.63;;;1.30;99.90;;;;;;5033959;28;20056;-73
2022/04/03 03:38:42;;;;;;;0.30;0.30;;;1.30;99.90;;;;;;5034343;28;20493;-73
2022/04/03 03:41:09;;;;;;;0.30;0.30;;;1.30;99.90;;;;;;5034271;28;20061;-73
2022/04/03 03:43:36;;;;;;;0.57;0.57;;;1.20;99.90;;;;;;5033025;28;20439;-73
2022/04/03 03:46:02;;;;;;;0.52;0.52;;;1.20;99.90;;;;;;5032578;28;20497;-73
2022/04/03 03:48:28;;;;;;;0.77;0.77;;;0.90;99.90;;;;;;5033925;28;20022;-73
2022/04/03 03:50:53;;;;;;;3.40;2.30;;;1.00;99.90;;;;;;5032764;28;20033;-73
2022/04/03 03:53:20;;;;;;;0.32;0.32;;;1.10;99.90;;;;;;5034099;28;20075;-73
2022/04/03 03:55:46;;;;;;;0.40;0.40;;;1.30;99.90;;;;;;5033621;28;20481;-73
2022/04/03 03:58:12;;;;;;;1.10;1.10;;;1.20;99.90;;;;;;5032594;28;20030;-73
2022/04/03 04:00:38;;;;;;;1.25;1.17;;;1.10;99.90;;;;;;5032188;28;20057;-73
2022/04/03 04:03:04;;;;;;;1.65;1.55;;;0.90;99.90;;;;;;5032988;28;20532;-73
2022/04/03 04:05:30;;;;;;;0.30;0.30;;;0.90;99.90;;;;;;5033630;28;20412;-72
2022/04/03 04:07:55;;;;;;;0.50;0.50;;;0.90;99.90;;;;;;5033729;28;20075;-73
2022/04/03 04:10:21;;;;;;;0.30;0.30;;;0.90;99.90;;;;;;5033727;28;20079;-73
2022/04/03 04:12:48;;;;;;;0.30;0.30;;;0.90;99.90;;;;;;5033620;28;20469;-73
2022/04/03 04:15:15;;;;;;;0.30;0.30;;;1.00;99.90;;;;;;5032115;28;20094;-73
2022/04/03 04:17:43;;;;;;;0.30;0.30;;;1.00;99.90;;;;;;5032197;28;20057;-73
2022/04/03 04:20:12;;;;;;;2.38;1.00;;;1.10;99.90;;;;;;5033349;28;20025;-73
2022/04/03 04:22:42;;;;;;;2.72;1.30;;;1.10;99.90;;;;;;5032165;28;20056;-73
2022/04/03 04:25:11;;;;;;;0.30;0.30;;;1.20;99.90;;;;;;5033344;28;20386;-73
2022/04/03 04:27:38;;;;;;;0.30;0.30;;;1.20;99.90;;;;;;5033247;28;20064;-73
2022/04/03 04:30:05;;;;;;;0.35;0.35;;;1.20;99.90;;;;;;5033197;28;20025;-73
2022/04/03 04:32:32;;;;;;;0.30;0.30;;;1.10;99.90;;;;;;5031985;28;20029;-73
2022/04/03 04:34:58;;;;;;;1.23;1.23;;;1.20;99.90;;;;;;5032988;28;20057;-73
2022/04/03 04:37:24;;;;;;;1.40;0.95;;;1.10;99.90;;;;;;5033000;28;20038;-73
2022/04/03 04:39:50;;;;;;;1.15;1.13;;;1.10;99.90;;;;;;5031875;28;20083;-72
2022/04/03 04:42:16;;;;;;;0.60;0.60;;;1.10;99.90;;;;;;5032992;28;20029;-71
2022/04/03 04:44:42;;;;;;;1.95;1.48;;;1.10;99.90;;;;;;5033001;28;20025;-73
2022/04/03 04:47:08;;;;;;;3.33;2.85;;;1.10;99.90;;;;;;5048183;28;20026;-73
2022/04/03 04:49:34;;;;;;;0.75;0.75;;;1.10;99.90;;;;;;5031765;28;20105;-73
2022/04/03 04:52:00;;;;;;;14.27;6.30;;;1.30;99.90;;;;;;5032832;28;20083;-73
2022/04/03 04:54:26;;;;;;;0.90;0.90;;;1.30;99.90;;;;;;5032802;28;20038;-73
2022/04/03 04:56:53;;;;;;;3.03;1.15;;;1.30;99.90;;;;;;5032591;28;20017;-73
2022/04/03 05:01:50;;;;;;;;;;;1.20;99.90;;;;;;4991773;28;20050;-70
2022/04/03 05:04:16;;;;;;;0.98;0.98;;;1.10;99.90;;;;;;4993167;28;20277;-72
2022/04/03 05:06:43;;;;;;;0.40;0.40;;;1.10;99.90;;;;;;5010259;28;20022;-72
2022/04/03 05:09:09;;;;;;;0.40;0.40;;;1.10;99.90;;;;;;5012696;28;20022;-72
2022/04/03 05:11:39;;;;;;;1.05;1.02;;;1.20;99.90;;;;;;5012660;28;20049;-71
2022/04/03 05:14:06;;;;;;;1.95;1.20;;;1.20;99.90;;;;;;5012886;28;20026;-72
2022/04/03 05:16:32;;;;;;;0.30;0.30;;;1.10;99.90;;;;;;5012410;28;20375;-71
2022/04/03 05:18:58;;;;;;;0.40;0.40;;;1.10;99.90;;;;;;4995108;28;20056;-72
2022/04/03 05:21:24;;;;;;;1.45;1.30;;;1.20;99.90;;;;;;5012420;28;20474;-72
2022/04/03 05:23:50;;;;;;;0.30;0.30;;;1.20;99.90;;;;;;5012515;28;20469;-72
2022/04/03 05:26:19;;;;;;;0.30;0.30;;;1.20;99.90;;;;;;5012249;28;20030;-72
2022/04/03 05:28:45;;;;;;;0.70;0.68;;;1.40;99.90;;;;;;4994793;28;20052;-71
2022/04/03 05:31:11;;;;;;;0.30;0.30;;;1.40;99.90;;;;;;5012413;28;20033;-72
2022/04/03 05:33:37;;;;;;;0.30;0.30;;;1.30;99.90;;;;;;5011102;28;20500;-72
2022/04/03 05:36:04;;;;;;;2.38;1.27;;;1.30;99.90;;;;;;4994426;28;20026;-72
2022/04/03 05:38:30;;;;;;;0.45;0.45;;;1.30;99.90;;;;;;5012490;28;20077;-72
2022/04/03 05:40:56;;;;;;;2.63;1.58;;;1.30;99.90;;;;;;5012334;28;20030;-72
2022/04/03 05:43:22;;;;;;;1.52;1.42;;;1.30;99.90;;;;;;4994730;28;20026;-72
2022/04/03 05:45:47;;;;;;;2.10;1.48;;;1.20;99.90;;;;;;5012222;28;20026;-71
2022/04/03 05:48:13;;;;;;;0.30;0.30;;;1.30;99.90;;;;;;5012336;28;20072;-72
2022/04/03 05:50:39;;;;;;;12.60;8.40;;;1.20;99.90;;;;;;5012283;28;20038;-72
2022/04/03 05:53:06;;;;;;;0.40;0.40;;;1.40;99.90;;;;;;5012387;28;20432;-72
2022/04/03 05:55:32;;;;;;;0.40;0.40;;;1.50;99.90;;;;;;5008455;22;20053;-73
2022/04/03 05:57:58;;;;;;;2.25;2.15;;;1.50;99.90;;;;;;5052662;28;20033;-73
2022/04/03 06:00:24;;;;;;;0.43;0.43;;;1.60;99.90;;;;;;5033951;28;20025;-72
2022/04/03 06:02:59;;;;;;;2.28;0.90;;;1.40;99.90;;;;;;5034505;28;20063;-72
2022/04/03 06:05:27;;;;;;;2.05;1.85;;;1.50;99.90;;;;;;5033940;28;20032;-72
2022/04/03 06:07:53;;;;;;;7.80;1.30;;;1.50;99.90;;;;;;5051947;28;20021;-72
2022/04/03 06:10:26;;;;;;;2.05;0.95;;;1.60;99.90;;;;;;5052272;28;20388;-72
2022/04/03 06:12:51;;;;;;;1.88;1.75;;;1.70;99.90;;;;;;5052286;28;20059;-72
2022/04/03 06:15:17;;;;;;;0.40;0.40;;;1.70;99.90;;;;;;5034097;28;20029;-72
2022/04/03 06:17:43;;;;;;;2.30;2.15;;;1.50;99.90;;;;;;5051847;28;20423;-71
2022/04/03 06:20:09;;;;;;;0.77;0.77;;;1.40;99.90;;;;;;5052152;28;20040;-72
2022/04/03 06:22:35;;;;;;;1.95;1.83;;;1.60;99.90;;;;;;5034094;28;20037;-71
2022/04/03 06:25:00;;;;;;;0.82;0.82;;;1.60;99.90;;;;;;5051843;28;20025;-72
2022/04/03 06:27:27;;;;;;;3.20;2.15;;;1.40;99.90;;;;;;5055573;28;20033;-71
2022/04/03 06:29:53;;;;;;;0.30;0.30;;;1.50;99.90;;;;;;5037751;28;20431;-71
2022/04/03 06:32:19;;;;;;;4.28;2.45;;;1.50;99.90;;;;;;5055693;28;20048;-72
2022/04/03 06:34:45;;;;;;;5.25;3.22;;;1.50;99.90;;;;;;5055602;28;20476;-71
2022/04/03 06:37:10;;;;;;;0.40;0.40;;;1.50;99.90;;;;;;5037598;28;20036;-71
2022/04/03 06:39:36;;;;;;;2.55;1.05;;;1.50;99.90;;;;;;5037416;28;20116;-71
2022/04/03 06:42:03;;;;;;;5.47;2.80;;;1.60;99.90;;;;;;5055455;28;20070;-71
2022/04/03 06:44:30;;;;;;;2.92;2.33;;;1.60;99.90;;;;;;5037797;28;20025;-71
2022/04/03 06:46:56;;;;;;;0.30;0.30;;;1.40;99.90;;;;;;5036457;28;20017;-72
2022/04/03 06:49:22;;;;;;;0.55;0.55;;;1.30;99.90;;;;;;5037424;28;20495;-71
2022/04/03 06:51:47;;;;;;;0.70;0.70;;;1.30;99.90;;;;;;5055404;28;20046;-71
2022/04/03 06:54:13;;;;;;;1.17;1.17;;;1.30;99.90;;;;;;5037241;28;20021;-71
2022/04/03 06:56:39;;;;;;;0.50;0.50;;;1.50;99.90;;;;;;5037016;28;20437;-71
2022/04/03 06:59:06;;;;;;;1.08;1.08;;;1.40;99.90;;;;;;5055294;28;20032;-71
2022/04/03 07:01:31;;;;;;;2.30;2.10;;;1.50;99.90;;;;;;5055627;28;20108;-71
2022/04/03 07:03:57;;;;;;;1.25;1.13;;;1.40;99.90;;;;;;5054630;28;20519;-72
2022/04/03 07:06:23;;;;;;;1.80;0.63;;;1.30;99.90;;;;;;5036820;28;20377;-72
2022/04/03 07:08:48;;;;;;;0.77;0.77;;;1.10;99.90;;;;;;5036956;28;20021;-71
2022/04/03 07:11:15;;;;;;;1.85;1.17;;;1.40;99.90;;;;;;5053895;28;20445;-71
2022/04/03 07:13:41;;;;;;;3.03;2.65;;;1.50;99.90;;;;;;5054601;28;20496;-71
2022/04/03 07:16:06;;;;;;;7.22;4.35;;;1.60;99.90;;;;;;5054282;28;20029;-72
2022/04/03 07:18:35;;;;;;;7.82;4.93;;;1.60;99.90;;;;;;5054862;28;20044;-71
2022/04/03 07:21:01;;;;;;;0.40;0.40;;;1.30;99.90;;;;;;5055047;28;20029;-71
2022/04/03 07:23:27;;;;;;;1.70;0.93;;;1.50;99.90;;;;;;5054630;28;20051;-71
2022/04/03 07:25:52;;;;;;;2.47;0.88;;;1.70;99.90;;;;;;5036619;28;20059;-71
2022/04/03 07:28:18;;;;;;;2.17;1.75;;;1.60;99.90;;;;;;5054541;28;20104;-71
2022/04/03 07:30:44;;;;;;;1.40;1.30;;;1.60;99.90;;;;;;5054548;28;20025;-71
2022/04/03 07:33:09;;;;;;;5.43;3.28;;;1.40;99.90;;;;;;5054760;28;20032;-71
2022/04/03 07:35:37;;;;;;;0.77;0.73;;;1.40;99.90;;;;;;5054378;28;20025;-72
2022/04/03 07:38:03;;;;;;;0.93;0.93;;;1.40;99.90;;;;;;5031864;28;20103;-72
2022/04/03 07:40:30;;;;;;;1.23;1.13;;;1.60;99.90;;;;;;5054366;28;20032;-72
2022/04/03 07:42:56;;;;;;;1.23;1.20;;;1.70;99.90;;;;;;5054140;28;20028;-71
2022/04/03 07:45:22;;;;;;;1.10;1.00;;;1.60;99.90;;;;;;5053926;28;20024;-72
2022/04/03 07:47:50;;;;;;;3.97;1.10;;;1.90;99.90;;;;;;5054028;28;20095;-72
2022/04/03 07:50:20;;;;;;;0.80;0.80;;;2.10;99.90;;;;;;5053345;28;20025;-71
2022/04/03 07:52:47;;;;;;;0.30;0.30;;;2.30;99.90;;;;;;5035095;28;20035;-71
2022/04/03 07:55:13;;;;;;;0.55;0.55;;;2.40;99.90;;;;;;5052890;28;20033;-72
2022/04/03 07:57:40;;;;;;;1.33;1.27;;;2.50;99.90;;;;;;5052449;28;20111;-72
2022/04/03 08:00:08;;;;;;;2.72;1.55;;;2.50;99.90;;;;;;5053560;28;20028;-71
2022/04/03 08:02:37;;;;;;;1.73;1.10;;;2.50;99.90;;;;;;5053533;28;20029;-72
2022/04/03 08:05:04;;;;;;;0.20;0.20;;;2.70;99.90;;;;;;5053387;28;20021;-72
2022/04/03 08:07:43;;;;;;;2.92;2.03;;;2.60;99.90;;;;;;5053357;28;20024;-71
2022/04/03 08:10:10;;;;;;;0.65;0.65;;;2.80;99.90;;;;;;5053497;28;20021;-71
2022/04/03 08:12:37;;;;;;;4.15;3.40;;;2.70;99.90;;;;;;5053231;28;20032;-71
2022/04/03 08:15:04;;;;;;;1.85;1.75;;;2.60;99.90;;;;;;5035638;28;20492;-72
2022/04/03 08:17:34;;;;;;;1.23;1.23;;;2.70;99.90;;;;;;5053191;28;20020;-72
2022/04/03 08:20:01;;;;;;;9.02;5.57;;;2.90;99.90;;;;;;5035603;28;20060;-71
2022/04/03 08:22:28;;;;;;;5.85;2.25;;;2.50;99.90;;;;;;5052997;28;20506;-71
2022/04/03 08:24:54;;;;;;;0.73;0.70;;;2.60;99.90;;;;;;5053209;28;20080;-71
2022/04/03 08:27:19;;;;;;;0.75;0.75;;;2.40;99.90;;;;;;5052926;28;20477;-72
2022/04/03 08:29:46;;;;;;;1.45;1.45;;;2.60;99.90;;;;;;5053045;28;20024;-71
2022/04/03 08:32:13;;;;;;;12.77;5.35;;;2.70;99.90;;;;;;5035058;28;20025;-72
2022/04/03 08:34:40;;;;;;;16.05;5.25;;;2.40;99.90;;;;;;5052890;28;20032;-71
2022/04/03 08:37:06;;;;;;;2.28;1.30;;;2.50;99.90;;;;;;5034740;28;20086;-71
2022/04/03 08:39:32;;;;;;;2.92;2.08;;;2.80;99.90;;;;;;5052794;28;20025;-72
2022/04/03 08:41:59;;;;;;;1.40;1.30;;;2.90;99.90;;;;;;5052828;28;20403;-74
2022/04/03 08:44:25;;;;;;;2.22;2.13;;;2.90;99.90;;;;;;5035076;28;20017;-73
2022/04/03 08:46:53;;;;;;;4.65;1.50;;;3.00;99.90;;;;;;5053415;28;20029;-75
2022/04/03 08:49:20;;;;;;;0.77;0.77;;;3.20;99.90;;;;;;5052827;28;20074;-73
2022/04/03 08:51:48;;;;;;;3.42;2.33;;;3.30;99.90;;;;;;5052931;28;20044;-77
2022/04/03 08:54:14;;;;;;;9.07;2.80;;;3.20;99.90;;;;;;5034831;28;20488;-74
2022/04/03 08:56:42;;;;;;;1.88;1.15;;;3.20;99.90;;;;;;5053635;28;20512;-74
2022/04/03 08:59:09;;;;;;;3.33;2.67;;;2.90;99.90;;;;;;5053842;28;20031;-74
2022/04/03 09:01:35;;;;;;;0.30;0.30;;;2.80;99.90;;;;;;5052496;28;20074;-74
2022/04/03 09:04:01;;;;;;;0.30;0.30;;;2.80;99.90;;;;;;5036092;28;20084;-73
2022/04/03 09:06:27;;;;;;;3.50;2.33;;;2.50;99.90;;;;;;5035771;28;20523;-74
2022/04/03 09:08:53;;;;;;;0.63;0.63;;;2.40;99.90;;;;;;5036023;28;20023;-74
2022/04/03 09:11:19;;;;;;;0.52;0.52;;;2.50;99.90;;;;;;5053555;28;20021;-74
2022/04/03 09:13:45;;;;;;;0.63;0.60;;;2.60;99.90;;;;;;5053751;28;20052;-74
2022/04/03 09:16:11;;;;;;;2.08;1.85;;;2.90;99.90;;;;;;5053706;28;20100;-74
2022/04/03 09:18:53;;;;;;;2.15;2.05;;;2.60;99.90;;;;;;5053701;28;20024;-74
2022/04/03 09:21:24;;;;;;;1.30;1.02;;;2.90;99.90;;;;;;5053664;28;20366;-75
2022/04/03 09:24:07;;;;;;;7.85;5.13;;;3.10;99.90;;;;;;5053876;28;20480;-74
2022/04/03 09:26:34;;;;;;;2.08;1.73;;;3.10;99.90;;;;;;5035329;28;20024;-74
2022/04/03 09:29:17;;;;;;;2.72;1.55;;;3.20;99.90;;;;;;5036128;28;20063;-74
2022/04/03 09:31:45;;;;;;;3.67;3.45;;;3.50;99.90;;;;;;5053502;28;20108;-74
2022/04/03 09:34:20;;;;;;;1.60;1.10;;;3.90;99.90;;;;;;5053342;28;20047;-74
2022/04/03 09:37:05;;;;;;;1.00;1.00;;;4.10;99.90;;;;;;5052689;28;20028;-75
2022/04/03 09:39:31;;;;;;;0.88;0.88;;;3.80;99.90;;;;;;5017786;28;20075;-74
2022/04/03 09:42:09;;;;;;;1.85;1.58;;;3.60;99.90;;;;;;5051855;28;20032;-76
2022/04/03 09:44:43;;;;;;;0.70;0.70;;;3.50;99.90;;;;;;5053865;28;20025;-78
2022/04/03 09:47:26;;;;;;;0.35;0.35;;;3.30;99.90;;;;;;5053323;28;20017;-78
2022/04/03 09:49:55;;;;;;;6.45;4.72;;;3.30;99.90;;;;;;5035983;28;20128;-77
2022/04/03 09:52:45;;;;;;;8.45;3.15;;;3.50;99.90;;;;;;5053967;28;20079;-78
2022/04/03 09:55:15;;;;;;;2.45;2.25;;;3.20;99.90;;;;;;5053320;28;20022;-78
2022/04/03 09:57:42;;;;;;;2.97;2.33;;;3.20;99.90;;;;;;5019093;28;20041;-78
2022/04/03 10:00:09;;;;;;;2.10;1.90;;;3.10;99.90;;;;;;5035657;28;20120;-78
2022/04/03 10:02:35;;;;;;;0.45;0.45;;;3.00;99.90;;;;;;5022795;28;20361;-78
2022/04/03 10:05:01;;;;;;;1.58;1.48;;;2.80;99.90;;;;;;5057562;28;20024;-74
2022/04/03 10:07:30;;;;;;;0.30;0.30;;;2.90;99.90;;;;;;5039479;28;20578;-74
2022/04/03 10:09:56;;;;;;;1.77;1.40;;;3.00;99.90;;;;;;5039281;28;20025;-74
2022/04/03 10:12:23;;;;;;;0.55;0.55;;;3.20;99.90;;;;;;5057212;28;20025;-74
2022/04/03 10:14:50;;;;;;;0.93;0.93;;;3.40;99.90;;;;;;5057113;28;20032;-74
2022/04/03 10:17:19;;;;;;;3.65;3.45;;;3.50;99.90;;;;;;5055892;28;20044;-74
2022/04/03 10:19:45;;;;;;;0.47;0.47;;;3.50;99.90;;;;;;5038617;28;20503;-74
2022/04/03 10:22:31;;;;;;;7.88;1.67;;;3.60;99.90;;;;;;5057107;28;20017;-74
2022/04/03 10:25:04;;;;;;;0.68;0.68;;;3.70;99.90;;;;;;5056941;28;20091;-74
2022/04/03 10:27:35;;;;;;;1.23;1.20;;;4.70;99.90;;;;;;5056726;28;20044;-74
2022/04/03 10:30:01;;;;;;;2.53;1.60;;;5.50;99.90;;;;;;5039238;28;20032;-74
2022/04/03 10:32:30;;;;;;;4.05;1.65;;;6.30;98.70;;;;;;5054975;28;20032;-74
2022/04/03 10:34:58;;;;;;;1.92;1.13;;;7.10;97.70;;;;;;5034911;28;20040;-74
2022/04/03 10:37:42;;;;;;;0.40;0.40;;;7.30;94.50;;;;;;5056166;28;20025;-74
2022/04/03 10:40:16;;;;;;;4.93;2.58;;;7.10;94.60;;;;;;5056086;28;20056;-74
2022/04/03 10:42:51;;;;;;;3.13;1.52;;;7.20;93.60;;;;;;5055828;28;20035;-74
2022/04/03 10:45:19;;;;;;;1.75;1.45;;;7.70;92.60;;;;;;5055665;28;20023;-74
2022/04/03 10:47:46;;;;;;;3.95;1.85;;;7.40;92.10;;;;;;5055753;28;20021;-74
2022/04/03 10:50:13;;;;;;;3.70;2.22;;;6.50;90.40;;;;;;5055717;28;20522;-74
2022/04/03 10:52:38;;;;;;;4.07;1.80;;;5.40;92.60;;;;;;5038122;28;20032;-74
2022/04/03 10:55:37;;;;;;;0.30;0.30;;;5.00;93.90;;;;;;5037359;28;20330;-72
2022/04/03 10:58:06;;;;;;;0.65;0.65;;;4.90;96.00;;;;;;5053591;28;20040;-74
2022/04/03 11:00:35;;;;;;;0.30;0.30;;;4.80;95.80;;;;;;5067598;22;20474;-72
2022/04/03 11:03:21;;;;;;;0.50;0.50;;;4.60;96.40;;;;;;5054139;28;20168;-72
2022/04/03 11:05:47;;;;;;;1.95;1.83;;;4.40;95.90;;;;;;5053551;28;20114;-72
2022/04/03 11:08:13;;;;;;;0.30;0.30;;;4.20;97.50;;;;;;5019996;28;20025;-72
2022/04/03 11:10:59;;;;;;;0.88;0.88;;;4.20;97.60;;;;;;5054510;28;20095;-72
2022/04/03 11:13:31;;;;;;;1.10;0.98;;;4.30;98.40;;;;;;5054336;28;20029;-72
2022/04/03 11:16:00;;;;;;;2.83;0.93;;;4.20;97.10;;;;;;5054033;28;20105;-72
2022/04/03 11:18:38;;;;;;;2.00;1.77;;;3.70;97.60;;;;;;5054291;28;20112;-72
2022/04/03 11:21:07;;;;;;;1.25;1.25;;;3.50;98.50;;;;;;5052866;28;20032;-73
2022/04/03 11:23:41;;;;;;;0.40;0.40;;;3.60;99.70;;;;;;5054326;28;20024;-72
2022/04/03 11:26:07;;;;;;;0.30;0.30;;;3.70;99.80;;;;;;5053996;28;20025;-72
2022/04/03 11:28:36;;;;;;;1.48;1.38;;;3.80;99.10;;;;;;5054106;28;20025;-73
2022/04/03 11:31:03;;;;;;;2.60;2.50;;;3.70;99.50;;;;;;5053493;28;20036;-73
2022/04/03 11:33:30;;;;;;;3.15;2.67;;;3.60;99.90;;;;;;5053760;28;20029;-73
2022/04/03 11:36:03;;;;;;;0.50;0.50;;;3.60;99.90;;;;;;5053759;28;20021;-73
2022/04/03 11:38:34;;;;;;;0.93;0.93;;;3.60;99.90;;;;;;5036619;28;20095;-72
2022/04/03 11:41:03;;;;;;;1.38;1.20;;;3.50;99.90;;;;;;5036011;28;20025;-72
2022/04/03 11:43:29;;;;;;;0.95;0.95;;;3.50;99.90;;;;;;5036128;28;20106;-72
2022/04/03 11:45:57;;;;;;;8.07;4.63;;;3.60;99.90;;;;;;5035612;28;20025;-72
2022/04/03 11:48:25;;;;;;;0.45;0.45;;;3.60;99.90;;;;;;5035930;28;20031;-73
2022/04/03 11:51:07;;;;;;;3.28;2.00;;;3.50;99.90;;;;;;5035932;28;20075;-73
2022/04/03 11:53:33;;;;;;;0.50;0.50;;;3.60;99.90;;;;;;5035848;28;20021;-75
2022/04/03 11:56:15;;;;;;;1.40;1.40;;;3.40;99.90;;;;;;5035659;28;20032;-75
2022/04/03 11:58:54;;;;;;;0.88;0.88;;;3.40;99.90;;;;;;5036291;28;20027;-72
2022/04/03 12:01:35;;;;;;;1.08;1.08;;;3.40;99.90;;;;;;5053373;28;20037;-72
2022/04/03 12:04:12;;;;;;;0.45;0.45;;;3.30;99.90;;;;;;5035489;28;20027;-72
2022/04/03 12:06:40;;;;;;;1.95;1.85;;;3.50;99.90;;;;;;5034733;28;20029;-72
2022/04/03 12:09:10;;;;;;;0.32;0.32;;;3.40;99.90;;;;;;5035407;28;20025;-72
2022/04/03 12:11:40;;;;;;;0.40;0.40;;;3.30;99.90;;;;;;5035525;28;20032;-72
2022/04/03 12:14:08;;;;;;;0.50;0.50;;;3.50;99.90;;;;;;5053322;28;20084;-72
2022/04/03 12:16:39;;;;;;;3.50;3.20;;;3.50;99.90;;;;;;5052919;28;20065;-72
2022/04/03 12:19:10;;;;;;;2.00;1.88;;;3.60;99.90;;;;;;5053142;28;20439;-72
2022/04/03 12:21:37;;;;;;;0.52;0.52;;;3.70;99.90;;;;;;5053057;28;20100;-72
2022/04/03 12:24:05;;;;;;;1.25;0.85;;;3.70;99.90;;;;;;5052293;28;20112;-72
2022/04/03 12:26:32;;;;;;;0.20;0.20;;;3.60;99.90;;;;;;5052782;28;20029;-72
2022/04/03 12:28:57;;;;;;;3.90;2.72;;;3.80;99.90;;;;;;5053180;28;20021;-72
2022/04/03 12:31:28;;;;;;;0.47;0.47;;;3.80;99.90;;;;;;5034937;28;20083;-72
2022/04/03 12:34:07;;;;;;;0.60;0.60;;;3.90;99.90;;;;;;5052990;28;20032;-72
2022/04/03 12:36:50;;;;;;;0.45;0.45;;;4.00;99.90;;;;;;5052622;28;20024;-72
2022/04/03 12:39:55;;;;;;;2.08;1.95;;;3.90;99.90;;;;;;5052792;28;20070;-72
2022/04/03 12:42:39;;;;;;;1.25;0.88;;;3.90;99.90;;;;;;4971685;28;20110;-72
2022/04/03 12:45:12;;;;;;;0.68;0.65;;;3.90;99.90;;;;;;5048213;28;20509;-72
2022/04/03 12:47:44;;;;;;;1.98;1.77;;;4.00;99.90;;;;;;5034763;28;20021;-72
2022/04/03 12:50:21;;;;;;;0.30;0.30;;;3.70;99.90;;;;;;5052639;28;20171;-72
2022/04/03 12:52:53;;;;;;;2.83;2.08;;;3.60;99.90;;;;;;5034882;28;20056;-72
2022/04/03 12:55:24;;;;;;;2.42;2.22;;;3.50;99.90;;;;;;5052571;28;20104;-72
2022/04/03 13:01:06;;;;;;;0.82;0.82;;;3.80;99.90;;;;;;5052287;28;20056;-72
2022/04/03 13:03:38;;;;;;;3.42;2.80;;;4.00;99.90;;;;;;5052560;28;20480;-72
2022/04/03 13:06:33;;;;;;;0.57;0.57;;;4.20;99.90;;;;;;5017662;28;20025;-72
2022/04/03 13:08:59;;;;;;;2.58;2.08;;;3.90;99.90;;;;;;5044899;28;20512;-72